This is the latest recevied weather packets stored in our database for station/object HS5SQI-1. If no packets are shown the sender has not sent any weather packets the latest 10 day(s).
| Time | Temp. | Humidity | Pressure | Rain* | Wind** | Luminosity | Snow |
|---|---|---|---|---|---|---|---|
| 1777741945 | 27.78° C | 99% | 964 hPa | - | - | 0 W/m² | - |
| 1777741323 | 27.22° C | 99% | 964 hPa | - | - | 0 W/m² | - |
| 1777741104 | 27.22° C | 99% | 964 hPa | - | - | 0 W/m² | - |
| 1777740482 | 27.78° C | 99% | 964 hPa | - | - | 0 W/m² | - |
| 1777739860 | 27.78° C | 99% | 964 hPa | - | - | 0 W/m² | - |
| 1777739238 | 28.33° C | 99% | 964 hPa | - | - | 0 W/m² | - |
| 1777738616 | 28.33° C | 99% | 964 hPa | - | - | 0 W/m² | - |
| 1777737994 | 28.33° C | 99% | 964 hPa | - | - | 0 W/m² | - |
| 1777737372 | 28.33° C | 99% | 964 hPa | - | - | 0 W/m² | - |
| 1777736750 | 28.89° C | 99% | 964 hPa | - | - | 0 W/m² | - |
| 1777736128 | 28.89° C | 99% | 964 hPa | - | - | 0 W/m² | - |
| 1777735506 | 29.44° C | 99% | 964 hPa | - | - | 0 W/m² | - |
| 1777734884 | 29.44° C | 89% | 963 hPa | - | - | 0 W/m² | - |
| 1777734261 | 30.56° C | 74% | 963 hPa | - | - | 0 W/m² | - |
| 1777733639 | 31.11° C | 72% | 963 hPa | - | - | 0 W/m² | - |
| 1777733017 | 31.11° C | 68% | 963 hPa | - | - | 0 W/m² | - |
| 1777732395 | 31.11° C | 66% | 963 hPa | - | - | 0 W/m² | - |
| 1777731773 | 31.11° C | 63% | 963 hPa | - | - | 0 W/m² | - |
| 1777731151 | 30.56° C | 67% | 963 hPa | - | - | 0 W/m² | - |
| 1777730529 | 31.67° C | 66% | 963 hPa | - | - | 0 W/m² | - |
| 1777729907 | 32.78° C | 51% | 962 hPa | - | - | 0 W/m² | - |
| 1777729285 | 32.78° C | 53% | 962 hPa | - | - | 0 W/m² | - |
| 1777728663 | 32.78° C | 52% | 962 hPa | - | - | 0 W/m² | - |
| 1777728041 | 32.78° C | 52% | 962 hPa | - | - | 0 W/m² | - |
| 1777727419 | 32.78° C | 52% | 962 hPa | - | - | 0 W/m² | - |
* Rain since midnight (hover to see other rain measurements)
** Current wind speed in m/s (hover to see current wind gust speed)